createdAt,value
2022-08-29T00:02:06.877Z,56.90
2022-08-29T00:04:37.463Z,56.69
2022-08-29T00:07:07.123Z,56.28
2022-08-29T00:09:35.079Z,56.73
2022-08-29T00:12:03.443Z,57.77
2022-08-29T00:14:31.740Z,57.72
2022-08-29T00:17:01.121Z,57.31
2022-08-29T00:19:29.583Z,57.79
2022-08-29T00:21:58.937Z,57.78
2022-08-29T00:24:27.381Z,57.62
2022-08-29T00:26:55.362Z,58.15
2022-08-29T00:29:23.553Z,58.13
2022-08-29T00:31:51.360Z,58.16
2022-08-29T00:34:19.843Z,57.91
2022-08-29T00:36:49.021Z,58.33
2022-08-29T00:39:18.969Z,58.39
2022-08-29T00:41:51.199Z,57.80
2022-08-29T00:44:19.132Z,57.91
2022-08-29T00:46:55.271Z,58.50
2022-08-29T00:49:33.325Z,59.02
2022-08-29T00:52:07.305Z,58.74
2022-08-29T00:54:37.617Z,59.25
2022-08-29T00:57:06.539Z,60.06
2022-08-29T00:59:37.569Z,59.96
2022-08-29T01:02:06.235Z,58.89
2022-08-29T01:04:35.062Z,59.09
2022-08-29T01:07:03.680Z,58.19
2022-08-29T01:09:33.094Z,58.85
2022-08-29T01:12:17.311Z,58.68
2022-08-29T01:14:49.853Z,59.28
2022-08-29T01:17:22.480Z,59.26
2022-08-29T01:19:55.918Z,60.21
2022-08-29T01:22:37.707Z,59.62
2022-08-29T01:25:10.261Z,59.12
2022-08-29T01:27:41.250Z,59.98
2022-08-29T01:30:10.740Z,59.88
2022-08-29T01:32:38.756Z,60.03
2022-08-29T01:35:08.570Z,59.92
2022-08-29T01:37:39.633Z,60.18
2022-08-29T01:40:10.470Z,60.99
2022-08-29T01:42:38.386Z,60.51
2022-08-29T01:45:10.054Z,60.73
2022-08-29T01:47:39.954Z,60.31
2022-08-29T01:50:11.187Z,60.03
2022-08-29T01:52:39.513Z,59.90
2022-08-29T01:55:09.628Z,60.42
2022-08-29T01:57:38.831Z,60.19
2022-08-29T02:00:10.411Z,60.78
2022-08-29T02:02:41.199Z,60.13
2022-08-29T02:05:10.820Z,60.01
2022-08-29T02:07:39.813Z,60.18
2022-08-29T02:10:09.984Z,60.10
2022-08-29T02:12:37.877Z,60.18
2022-08-29T02:15:07.407Z,61.00
2022-08-29T02:17:35.618Z,61.37
2022-08-29T02:20:06.608Z,62.07
2022-08-29T02:22:36.217Z,61.37
2022-08-29T02:25:25.970Z,62.05
2022-08-29T02:27:56.273Z,61.95
2022-08-29T02:30:25.551Z,61.60
2022-08-29T02:32:55.036Z,62.30
2022-08-29T02:35:24.185Z,61.90
2022-08-29T02:37:52.409Z,62.27
2022-08-29T02:40:24.677Z,61.80
2022-08-29T02:43:01.797Z,62.04
2022-08-29T02:45:30.851Z,61.98
2022-08-29T02:47:59.692Z,61.87
2022-08-29T02:50:27.649Z,62.09
2022-08-29T02:52:55.647Z,62.14
2022-08-29T02:55:25.871Z,62.84
2022-08-29T02:57:54.502Z,63.28
2022-08-29T03:00:27.657Z,62.65
2022-08-29T03:02:57.002Z,63.00
2022-08-29T03:05:27.484Z,62.93
2022-08-29T03:07:55.902Z,62.45
2022-08-29T03:10:23.994Z,62.49
2022-08-29T03:12:52.505Z,62.63
2022-08-29T03:15:20.597Z,62.86
2022-08-29T03:17:50.401Z,63.09
2022-08-29T03:20:21.595Z,63.11
2022-08-29T03:22:49.918Z,63.23
2022-08-29T03:25:18.644Z,62.71
2022-08-29T03:27:46.587Z,63.19
2022-08-29T03:30:16.969Z,63.33
2022-08-29T03:32:45.320Z,63.97
2022-08-29T03:35:15.446Z,63.79
2022-08-29T03:37:43.674Z,63.94
2022-08-29T03:40:13.144Z,63.19
2022-08-29T03:42:42.795Z,63.17
2022-08-29T03:45:13.982Z,62.90
2022-08-29T03:47:42.001Z,62.82
2022-08-29T03:50:11.223Z,62.74
2022-08-29T03:52:40.701Z,63.67
2022-08-29T03:55:09.372Z,63.56
2022-08-29T03:57:37.694Z,63.63
2022-08-29T04:00:11.909Z,63.65
2022-08-29T04:02:40.380Z,63.42
2022-08-29T04:05:09.763Z,64.09
2022-08-29T04:07:51.570Z,63.53
2022-08-29T04:10:21.975Z,63.42
2022-08-29T04:12:54.274Z,63.45
2022-08-29T04:15:23.528Z,62.79
2022-08-29T04:17:54.186Z,63.35
2022-08-29T04:20:25.331Z,63.59
2022-08-29T04:22:56.101Z,63.63
2022-08-29T04:25:25.808Z,64.71
2022-08-29T04:27:53.797Z,64.09
2022-08-29T04:30:24.718Z,64.80
2022-08-29T04:32:52.831Z,63.63
2022-08-29T04:35:21.340Z,63.81
2022-08-29T04:37:49.663Z,64.19
2022-08-29T04:40:21.103Z,64.50
2022-08-29T04:42:49.378Z,64.29
2022-08-29T04:45:20.178Z,64.72
2022-08-29T04:47:48.031Z,65.22
2022-08-29T04:50:19.189Z,63.14
2022-08-29T04:52:47.665Z,64.51
2022-08-29T04:55:21.677Z,64.59
2022-08-29T04:57:56.312Z,65.35
2022-08-29T05:00:30.227Z,64.83
2022-08-29T05:02:59.446Z,64.62
2022-08-29T05:05:28.021Z,64.29
2022-08-29T05:07:56.031Z,64.25
2022-08-29T05:10:26.317Z,64.20
2022-08-29T05:12:56.042Z,64.32
2022-08-29T05:15:24.033Z,64.22
2022-08-29T05:17:53.209Z,63.68
2022-08-29T05:20:22.360Z,63.62
2022-08-29T05:22:50.474Z,63.55
2022-08-29T05:25:18.835Z,64.29
2022-08-29T05:27:48.588Z,64.22
2022-08-29T05:30:34.037Z,65.00
2022-08-29T05:33:02.842Z,64.23
2022-08-29T05:35:31.222Z,64.71
2022-08-29T05:37:59.291Z,63.59
2022-08-29T05:40:27.344Z,63.40
2022-08-29T05:42:57.063Z,64.28
2022-08-29T05:45:25.042Z,63.93
2022-08-29T05:47:53.463Z,63.08
2022-08-29T05:50:21.322Z,62.50
2022-08-29T05:52:49.370Z,62.41
2022-08-29T05:55:17.368Z,62.65
2022-08-29T05:57:45.319Z,63.28
2022-08-29T06:00:16.892Z,65.08
2022-08-29T06:02:45.081Z,64.08
2022-08-29T06:05:16.057Z,63.29
2022-08-29T06:07:44.184Z,63.46
2022-08-29T06:10:12.214Z,63.32
2022-08-29T06:12:40.281Z,63.39
2022-08-29T06:15:09.410Z,63.42
2022-08-29T06:17:39.087Z,62.88
2022-08-29T06:20:09.783Z,63.02
2022-08-29T06:22:40.406Z,63.06
2022-08-29T06:25:35.046Z,63.72
2022-08-29T06:27:58.736Z,63.70
2022-08-29T06:30:27.004Z,61.87
2022-08-29T06:32:56.408Z,62.94
2022-08-29T06:35:24.360Z,62.41
2022-08-29T06:37:53.169Z,62.88
2022-08-29T06:40:21.280Z,63.74
2022-08-29T06:42:49.246Z,61.42
2022-08-29T06:45:17.358Z,61.70
2022-08-29T06:47:48.537Z,60.47
2022-08-29T06:50:18.544Z,60.70
2022-08-29T06:52:47.096Z,61.04
2022-08-29T06:55:15.724Z,62.33
2022-08-29T06:57:46.052Z,62.16
2022-08-29T07:00:22.602Z,61.35
2022-08-29T07:02:52.898Z,61.20
2022-08-29T07:05:23.360Z,59.98
2022-08-29T07:07:52.527Z,61.16
2022-08-29T07:10:22.722Z,61.80
2022-08-29T07:12:51.592Z,60.96
2022-08-29T07:15:20.219Z,61.29
2022-08-29T07:17:48.654Z,60.94
2022-08-29T07:20:17.937Z,60.75
2022-08-29T07:22:51.444Z,60.50
2022-08-29T07:25:21.306Z,59.14
2022-08-29T07:27:51.974Z,58.77
2022-08-29T07:30:20.781Z,58.25
2022-08-29T07:32:52.396Z,57.31
2022-08-29T07:35:30.125Z,57.22
2022-08-29T07:38:02.888Z,56.46
2022-08-29T07:40:31.587Z,58.27
2022-08-29T07:43:00.323Z,58.07
2022-08-29T07:45:28.293Z,57.43
2022-08-29T07:47:57.345Z,57.00
2022-08-29T07:50:25.881Z,57.94
2022-08-29T07:52:53.916Z,57.56
2022-08-29T07:55:24.224Z,57.29
2022-08-29T07:57:52.874Z,56.58
2022-08-29T08:00:21.886Z,56.90
2022-08-29T08:02:50.451Z,56.94
2022-08-29T08:05:18.573Z,57.43
2022-08-29T08:07:47.392Z,55.68
2022-08-29T08:10:17.074Z,55.48
2022-08-29T08:12:48.427Z,55.44
2022-08-29T08:15:17.702Z,55.49
2022-08-29T08:17:46.329Z,55.47
2022-08-29T08:20:15.692Z,55.23
2022-08-29T08:22:43.676Z,54.69
2022-08-29T08:25:14.120Z,54.35
2022-08-29T08:27:43.608Z,54.23
2022-08-29T08:30:14.956Z,53.94
2022-08-29T08:32:46.890Z,53.31
2022-08-29T08:35:19.631Z,54.45
2022-08-29T08:37:49.431Z,55.66
2022-08-29T08:40:23.209Z,57.58
2022-08-29T08:43:00.720Z,56.74
2022-08-29T08:45:35.473Z,55.91
2022-08-29T08:48:08.203Z,55.64
2022-08-29T08:50:44.558Z,55.48
2022-08-29T08:53:19.372Z,55.20
2022-08-29T08:55:49.762Z,56.53
2022-08-29T08:58:29.242Z,56.95
2022-08-29T09:01:02.415Z,56.75
2022-08-29T09:03:52.470Z,56.56
2022-08-29T09:06:37.636Z,56.32
2022-08-29T09:09:14.689Z,56.14
2022-08-29T09:11:55.354Z,56.84
2022-08-29T09:14:42.228Z,56.88
2022-08-29T09:17:20.854Z,55.76
2022-08-29T09:19:50.914Z,55.19
2022-08-29T09:22:26.713Z,54.02
2022-08-29T09:25:04.033Z,55.11
2022-08-29T09:27:36.102Z,56.19
2022-08-29T09:30:09.113Z,55.12
2022-08-29T09:32:54.869Z,54.53
2022-08-29T09:35:25.806Z,54.68
2022-08-29T09:38:01.058Z,55.31
2022-08-29T09:40:51.664Z,53.55
2022-08-29T09:43:34.655Z,54.43
2022-08-29T09:46:05.315Z,52.79
2022-08-29T09:48:35.958Z,52.78
2022-08-29T09:51:14.015Z,52.49
2022-08-29T09:53:42.783Z,51.33
2022-08-29T09:56:18.614Z,52.20
2022-08-29T09:58:47.294Z,51.94
2022-08-29T10:01:20.305Z,50.04
2022-08-29T10:03:59.442Z,49.30
2022-08-29T10:06:29.919Z,48.11
2022-08-29T10:09:02.576Z,48.35
2022-08-29T10:11:35.974Z,47.91
2022-08-29T10:14:12.833Z,46.96
2022-08-29T10:16:50.032Z,47.30
2022-08-29T10:19:24.736Z,46.29
2022-08-29T10:22:03.658Z,46.43
2022-08-29T10:24:45.001Z,46.44
2022-08-29T10:27:25.010Z,46.11
2022-08-29T10:30:12.354Z,46.37
2022-08-29T10:33:11.282Z,47.01
2022-08-29T10:35:52.434Z,45.38
2022-08-29T10:38:41.207Z,46.13
2022-08-29T10:41:25.295Z,46.55
2022-08-29T10:44:02.565Z,44.05
2022-08-29T10:46:57.606Z,45.20
2022-08-29T10:49:39.834Z,44.81
2022-08-29T10:52:19.440Z,44.99
2022-08-29T10:54:54.013Z,44.29
2022-08-29T10:57:42.254Z,42.69
2022-08-29T11:00:16.971Z,41.72
2022-08-29T11:02:50.160Z,42.35
2022-08-29T11:05:24.598Z,42.18
2022-08-29T11:08:03.018Z,41.16
2022-08-29T11:10:40.675Z,41.27
2022-08-29T11:13:13.353Z,40.46
2022-08-29T11:15:45.600Z,40.45
2022-08-29T11:18:25.936Z,41.47
2022-08-29T11:20:58.934Z,40.12
2022-08-29T11:23:37.401Z,40.14
2022-08-29T11:26:22.048Z,38.08
2022-08-29T11:28:59.627Z,37.45
2022-08-29T11:31:41.240Z,36.99
2022-08-29T11:34:23.826Z,37.59
2022-08-29T11:37:07.965Z,36.14
2022-08-29T11:39:51.451Z,37.16
2022-08-29T11:45:16.255Z,35.40
2022-08-29T11:48:01.075Z,35.50
2022-08-29T11:50:33.756Z,33.55
2022-08-29T11:53:10.718Z,33.17
2022-08-29T11:55:42.006Z,33.56
2022-08-29T11:58:43.630Z,32.35
2022-08-29T12:01:52.759Z,32.80
2022-08-29T12:04:52.684Z,31.98
2022-08-29T12:07:24.344Z,31.92
2022-08-29T12:09:57.171Z,31.24
2022-08-29T12:12:48.867Z,32.79
2022-08-29T12:15:50.385Z,32.49
2022-08-29T12:18:36.806Z,32.49
2022-08-29T12:21:45.534Z,31.11
2022-08-29T12:24:41.739Z,31.33
2022-08-29T12:27:42.328Z,32.95
2022-08-29T12:30:14.505Z,31.18
2022-08-29T12:32:56.222Z,30.57
2022-08-29T12:35:46.524Z,30.86
2022-08-29T12:38:32.855Z,31.21
2022-08-29T12:41:15.245Z,31.33
2022-08-29T12:43:46.724Z,32.00
2022-08-29T12:46:26.771Z,32.78
2022-08-29T12:49:04.099Z,31.38
2022-08-29T12:51:34.162Z,31.38
2022-08-29T12:54:02.305Z,30.98
2022-08-29T12:56:30.884Z,30.55
2022-08-29T12:59:01.995Z,32.12
2022-08-29T13:01:37.959Z,31.09
2022-08-29T13:04:14.667Z,32.42
2022-08-29T13:06:53.391Z,30.77
2022-08-29T13:09:26.851Z,31.50
2022-08-29T13:12:12.073Z,30.99
2022-08-29T13:14:52.383Z,32.13
2022-08-29T13:17:30.194Z,31.04
2022-08-29T13:20:35.936Z,30.83
2022-08-29T13:23:19.408Z,31.86
2022-08-29T13:25:51.949Z,30.56
2022-08-29T13:28:32.361Z,32.02
2022-08-29T13:31:34.738Z,32.08
2022-08-29T13:34:26.533Z,31.73
2022-08-29T13:37:01.331Z,31.66
2022-08-29T13:39:45.892Z,31.41
2022-08-29T13:42:21.170Z,31.51
2022-08-29T13:45:15.185Z,32.19
2022-08-29T13:48:03.864Z,32.24
2022-08-29T13:50:33.479Z,32.92
2022-08-29T13:53:02.207Z,31.87
2022-08-29T13:55:30.754Z,31.95
2022-08-29T13:57:58.611Z,31.63
2022-08-29T14:00:32.400Z,32.03
2022-08-29T14:03:07.026Z,32.03
2022-08-29T14:05:38.139Z,32.44
2022-08-29T14:08:11.935Z,32.48
2022-08-29T14:10:41.839Z,32.30
2022-08-29T14:13:10.433Z,32.45
2022-08-29T14:15:40.954Z,32.29
2022-08-29T14:18:09.319Z,32.43
2022-08-29T14:20:39.012Z,31.94
2022-08-29T14:23:07.381Z,32.57
2022-08-29T14:25:35.590Z,32.26
2022-08-29T14:28:04.043Z,33.66
2022-08-29T14:30:32.750Z,33.08
2022-08-29T14:33:01.706Z,33.28
2022-08-29T14:35:32.992Z,33.35
2022-08-29T14:38:05.952Z,32.53
2022-08-29T14:40:39.371Z,32.97
2022-08-29T14:43:11.818Z,33.45
2022-08-29T14:45:39.741Z,33.68
2022-08-29T14:48:07.723Z,33.27
2022-08-29T14:50:37.082Z,33.25
2022-08-29T14:53:07.242Z,33.20
2022-08-29T14:55:36.273Z,32.90
2022-08-29T14:58:06.024Z,33.42
2022-08-29T15:00:34.956Z,35.07
2022-08-29T15:03:03.558Z,34.91
2022-08-29T15:05:32.777Z,34.93
2022-08-29T15:08:06.019Z,35.26
2022-08-29T15:10:36.018Z,35.40
2022-08-29T15:13:05.398Z,35.74
2022-08-29T15:15:33.441Z,35.94
2022-08-29T15:18:03.255Z,36.70
2022-08-29T15:20:36.316Z,36.02
2022-08-29T15:23:05.806Z,36.06
2022-08-29T15:25:35.558Z,36.34
2022-08-29T15:28:05.548Z,37.11
2022-08-29T15:30:34.357Z,36.51
2022-08-29T15:33:03.012Z,36.11
2022-08-29T15:35:31.801Z,35.67
2022-08-29T15:38:00.093Z,35.70
2022-08-29T15:40:28.903Z,36.64
2022-08-29T15:42:58.330Z,37.19
2022-08-29T15:45:26.410Z,36.94
2022-08-29T15:47:54.627Z,37.15
2022-08-29T15:50:23.519Z,37.51
2022-08-29T15:52:51.518Z,37.37
2022-08-29T15:55:19.718Z,37.80
2022-08-29T15:57:51.794Z,37.53
2022-08-29T16:00:30.788Z,37.86
2022-08-29T16:03:04.286Z,38.24
2022-08-29T16:05:33.531Z,37.54
2022-08-29T16:08:02.547Z,37.61
2022-08-29T16:10:31.569Z,38.15
2022-08-29T16:13:00.156Z,38.69
2022-08-29T16:15:33.776Z,39.02
2022-08-29T16:18:07.018Z,37.19
2022-08-29T16:20:35.624Z,38.03
2022-08-29T16:23:05.090Z,38.37
2022-08-29T16:25:34.440Z,38.70
2022-08-29T16:28:03.440Z,38.45
2022-08-29T16:30:37.963Z,39.05
2022-08-29T16:33:12.661Z,38.80
2022-08-29T16:35:40.538Z,39.20
2022-08-29T16:38:08.581Z,39.35
2022-08-29T16:40:36.826Z,39.15
2022-08-29T16:43:06.610Z,40.43
2022-08-29T16:45:35.922Z,39.91
2022-08-29T16:48:14.781Z,39.72
2022-08-29T16:50:45.023Z,39.42
2022-08-29T16:53:13.427Z,39.98
2022-08-29T16:55:42.132Z,40.20
2022-08-29T16:58:28.467Z,39.38
2022-08-29T17:00:58.530Z,39.31
2022-08-29T17:03:26.916Z,38.62
2022-08-29T17:05:55.080Z,39.33
2022-08-29T17:08:22.591Z,39.68
2022-08-29T17:10:49.442Z,39.30
2022-08-29T17:13:16.613Z,40.09
2022-08-29T17:15:43.383Z,39.62
2022-08-29T17:18:12.838Z,39.43
2022-08-29T17:20:44.008Z,39.26
2022-08-29T17:23:15.715Z,40.11
2022-08-29T17:25:44.463Z,40.91
2022-08-29T17:28:19.966Z,40.65
2022-08-29T17:30:49.119Z,40.90
2022-08-29T17:33:19.814Z,40.87
2022-08-29T17:35:48.645Z,41.74
2022-08-29T17:38:16.983Z,41.96
2022-08-29T17:40:47.687Z,42.11
2022-08-29T17:43:18.350Z,41.12
2022-08-29T17:45:47.392Z,41.80
2022-08-29T17:48:15.512Z,42.39
2022-08-29T17:50:44.906Z,42.28
2022-08-29T17:53:12.895Z,43.01
2022-08-29T17:55:41.381Z,43.10
2022-08-29T17:58:09.740Z,43.01
2022-08-29T18:00:37.729Z,42.56
2022-08-29T18:03:06.281Z,42.75
2022-08-29T18:05:37.904Z,42.46
2022-08-29T18:08:07.805Z,43.11
2022-08-29T18:10:37.223Z,43.78
2022-08-29T18:13:05.857Z,43.65
2022-08-29T18:15:35.420Z,43.36
2022-08-29T18:18:03.982Z,43.86
2022-08-29T18:20:32.418Z,44.25
2022-08-29T18:23:00.415Z,44.35
2022-08-29T18:25:30.222Z,44.07
2022-08-29T18:28:00.092Z,44.03
2022-08-29T18:30:28.998Z,44.48
2022-08-29T18:32:57.143Z,44.00
2022-08-29T18:35:25.378Z,43.98
2022-08-29T18:37:53.417Z,44.72
2022-08-29T18:40:21.422Z,44.52
2022-08-29T18:42:52.559Z,44.23
2022-08-29T18:45:20.807Z,44.89
2022-08-29T18:47:48.867Z,44.60
2022-08-29T18:50:35.513Z,45.36
2022-08-29T18:53:06.960Z,45.41
2022-08-29T18:55:35.307Z,45.21
2022-08-29T18:58:05.871Z,45.76
2022-08-29T19:00:34.576Z,45.79
2022-08-29T19:03:04.198Z,45.69
2022-08-29T19:05:34.328Z,45.78
2022-08-29T19:08:02.925Z,46.32
2022-08-29T19:10:32.021Z,46.34
2022-08-29T19:13:00.669Z,46.87
2022-08-29T19:15:31.621Z,46.62
2022-08-29T19:17:59.665Z,47.09
2022-08-29T19:20:46.591Z,47.25
2022-08-29T19:23:15.100Z,46.95
2022-08-29T19:25:43.803Z,47.10
2022-08-29T19:28:14.441Z,47.23
2022-08-29T19:30:44.860Z,47.58
2022-08-29T19:33:17.820Z,47.55
2022-08-29T19:35:48.976Z,47.44
2022-08-29T19:38:17.977Z,47.99
2022-08-29T19:40:52.179Z,48.33
2022-08-29T19:43:22.258Z,48.49
2022-08-29T19:45:53.330Z,48.78
2022-08-29T19:48:21.459Z,48.78
2022-08-29T19:51:00.617Z,49.02
2022-08-29T19:53:30.771Z,48.68
2022-08-29T19:55:58.696Z,49.58
2022-08-29T19:58:34.163Z,50.16
2022-08-29T20:01:07.140Z,50.10
2022-08-29T20:03:37.745Z,50.01
2022-08-29T20:06:07.587Z,49.90
2022-08-29T20:08:36.750Z,49.78
2022-08-29T20:11:06.658Z,49.96
2022-08-29T20:13:36.279Z,50.56
2022-08-29T20:16:10.562Z,50.89
2022-08-29T20:18:44.033Z,50.84
2022-08-29T20:21:13.092Z,51.19
2022-08-29T20:23:49.717Z,51.26
2022-08-29T20:26:19.310Z,50.47
2022-08-29T20:28:48.729Z,50.67
2022-08-29T20:31:18.860Z,50.61
2022-08-29T20:33:47.433Z,50.44
2022-08-29T20:36:33.281Z,50.59
2022-08-29T20:39:07.575Z,50.49
2022-08-29T20:41:36.090Z,50.56
2022-08-29T20:44:07.470Z,49.71
2022-08-29T20:46:40.671Z,49.74
2022-08-29T20:49:08.971Z,50.50
2022-08-29T20:51:38.299Z,50.59
2022-08-29T20:54:06.772Z,50.08
2022-08-29T20:56:34.993Z,50.05
2022-08-29T20:59:03.072Z,50.63
2022-08-29T21:01:31.288Z,50.39
2022-08-29T21:04:20.943Z,50.10
2022-08-29T21:06:50.126Z,50.52
2022-08-29T21:09:18.233Z,51.30
2022-08-29T21:11:46.267Z,50.48
2022-08-29T21:14:14.161Z,50.98
2022-08-29T21:16:42.202Z,50.73
2022-08-29T21:19:12.680Z,51.13
2022-08-29T21:21:42.541Z,51.07
2022-08-29T21:24:11.027Z,51.24
2022-08-29T21:26:40.012Z,51.08
2022-08-29T21:29:09.353Z,51.41
2022-08-29T21:31:37.801Z,51.26
2022-08-29T21:34:07.268Z,51.33
2022-08-29T21:36:37.527Z,52.67
2022-08-29T21:39:08.055Z,52.86
2022-08-29T21:41:40.683Z,53.34
2022-08-29T21:44:10.142Z,53.13
2022-08-29T21:46:43.404Z,52.57
2022-08-29T21:49:13.719Z,52.29
2022-08-29T21:51:43.537Z,52.15
2022-08-29T21:54:13.837Z,51.94
2022-08-29T21:56:42.812Z,51.83
2022-08-29T21:59:11.700Z,51.80
2022-08-29T22:01:40.994Z,52.27
2022-08-29T22:04:19.215Z,52.43
2022-08-29T22:06:59.858Z,51.81
2022-08-29T22:09:29.908Z,52.18
2022-08-29T22:11:58.807Z,51.94
2022-08-29T22:14:47.681Z,52.26
2022-08-29T22:17:16.226Z,53.08
2022-08-29T22:19:44.162Z,53.67
2022-08-29T22:22:13.429Z,53.30
2022-08-29T22:24:41.449Z,52.44
2022-08-29T22:27:09.602Z,51.86
2022-08-29T22:29:38.180Z,51.68
2022-08-29T22:32:06.538Z,51.49
2022-08-29T22:34:34.826Z,51.98
2022-08-29T22:37:02.806Z,51.77
2022-08-29T22:39:32.566Z,52.12
2022-08-29T22:42:01.091Z,52.20
2022-08-29T22:44:59.574Z,52.95
2022-08-29T22:47:18.390Z,53.21
2022-08-29T22:49:47.696Z,53.56
2022-08-29T22:52:15.857Z,53.78
2022-08-29T22:54:46.062Z,53.91
2022-08-29T22:57:17.304Z,53.40
2022-08-29T22:59:46.732Z,53.16
2022-08-29T23:02:14.782Z,53.08
2022-08-29T23:04:43.698Z,53.22
2022-08-29T23:07:12.982Z,53.10
2022-08-29T23:09:43.076Z,52.97
2022-08-29T23:12:14.434Z,52.98
2022-08-29T23:14:46.541Z,53.69
2022-08-29T23:17:15.515Z,54.27
2022-08-29T23:19:43.445Z,54.90
2022-08-29T23:22:13.086Z,55.47
2022-08-29T23:24:57.776Z,54.64
2022-08-29T23:27:28.985Z,54.14
2022-08-29T23:29:57.550Z,53.77
2022-08-29T23:32:25.543Z,53.96
2022-08-29T23:34:53.784Z,54.81
2022-08-29T23:37:21.782Z,54.46
2022-08-29T23:39:50.858Z,54.53
2022-08-29T23:42:19.210Z,54.37
2022-08-29T23:44:48.785Z,54.46
2022-08-29T23:47:16.926Z,54.46
2022-08-29T23:49:45.405Z,54.49
2022-08-29T23:52:14.112Z,54.48
2022-08-29T23:54:42.154Z,54.55
2022-08-29T23:57:10.096Z,54.54
2022-08-29T23:59:55.356Z,54.54
